createdAt,value
2018-08-22T00:01:52.311Z,24.00
2018-08-22T00:04:19.642Z,23.90
2018-08-22T00:06:46.976Z,23.80
2018-08-22T00:09:14.297Z,23.70
2018-08-22T00:11:41.653Z,23.50
2018-08-22T00:14:08.975Z,23.50
2018-08-22T00:16:36.303Z,23.40
2018-08-22T00:19:03.636Z,23.30
2018-08-22T00:21:30.976Z,23.30
2018-08-22T00:23:58.276Z,23.20
2018-08-22T00:26:25.612Z,23.20
2018-08-22T00:28:52.971Z,23.10
2018-08-22T00:31:20.285Z,23.20
2018-08-22T00:33:47.610Z,23.10
2018-08-22T00:36:14.975Z,23.10
2018-08-22T00:38:42.256Z,23.10
2018-08-22T00:41:09.578Z,23.10
2018-08-22T00:43:36.895Z,23.10
2018-08-22T00:46:04.220Z,23.20
2018-08-22T00:48:31.523Z,23.20
2018-08-22T00:50:58.825Z,23.20
2018-08-22T00:53:26.187Z,23.20
2018-08-22T00:55:53.491Z,23.20
2018-08-22T00:58:20.809Z,23.10
2018-08-22T01:00:48.174Z,23.10
2018-08-22T01:03:15.485Z,23.20
2018-08-22T01:05:42.811Z,23.20
2018-08-22T01:08:10.115Z,23.30
2018-08-22T01:10:37.439Z,23.20
2018-08-22T01:13:04.817Z,23.10
2018-08-22T01:15:32.119Z,23.00
2018-08-22T01:17:59.462Z,22.90
2018-08-22T01:20:27.319Z,22.80
2018-08-22T01:22:54.637Z,22.70
2018-08-22T01:25:21.948Z,22.60
2018-08-22T01:27:49.265Z,22.60
2018-08-22T01:30:16.611Z,22.60
2018-08-22T01:32:43.918Z,22.60
2018-08-22T01:35:11.311Z,22.60
2018-08-22T01:37:38.647Z,22.70
2018-08-22T01:40:05.957Z,22.70
2018-08-22T01:42:33.307Z,22.70
2018-08-22T01:45:00.604Z,22.70
2018-08-22T01:47:27.915Z,22.60
2018-08-22T01:49:55.216Z,22.60
2018-08-22T01:52:22.521Z,22.70
2018-08-22T01:54:49.824Z,22.70
2018-08-22T01:57:17.346Z,22.60
2018-08-22T01:59:44.656Z,22.60
2018-08-22T02:02:11.955Z,22.70
2018-08-22T02:04:39.294Z,22.60
2018-08-22T02:07:06.651Z,22.60
2018-08-22T02:09:34.036Z,22.50
2018-08-22T02:12:01.401Z,22.50
2018-08-22T02:14:28.712Z,22.50
2018-08-22T02:16:56.023Z,22.50
2018-08-22T02:19:23.337Z,22.60
2018-08-22T02:21:50.683Z,22.60
2018-08-22T02:24:17.953Z,22.60
2018-08-22T02:26:45.266Z,22.40
2018-08-22T02:29:12.567Z,22.40
2018-08-22T02:31:39.887Z,22.40
2018-08-22T02:34:07.227Z,22.40
2018-08-22T02:36:34.583Z,22.30
2018-08-22T02:39:01.891Z,22.40
2018-08-22T02:41:29.195Z,22.30
2018-08-22T02:43:56.519Z,22.30
2018-08-22T02:46:23.831Z,22.30
2018-08-22T02:48:51.127Z,22.20
2018-08-22T02:51:18.439Z,22.10
2018-08-22T02:53:45.739Z,22.00
2018-08-22T02:56:13.041Z,22.00
2018-08-22T02:58:40.350Z,22.00
2018-08-22T03:01:07.659Z,22.00
2018-08-22T03:03:34.982Z,22.10
2018-08-22T03:06:02.301Z,22.20
2018-08-22T03:08:29.608Z,22.20
2018-08-22T03:10:56.933Z,22.20
2018-08-22T03:13:24.266Z,22.30
2018-08-22T03:15:51.575Z,22.30
2018-08-22T03:18:18.987Z,22.10
2018-08-22T03:20:46.279Z,22.00
2018-08-22T03:23:13.602Z,22.00
2018-08-22T03:25:40.903Z,22.00
2018-08-22T03:28:08.236Z,22.00
2018-08-22T03:30:35.579Z,22.00
2018-08-22T03:33:02.871Z,22.00
2018-08-22T03:35:30.166Z,22.10
2018-08-22T03:37:57.812Z,22.10
2018-08-22T03:40:25.114Z,22.00
2018-08-22T03:42:52.458Z,22.00
2018-08-22T03:45:19.750Z,22.00
2018-08-22T03:47:47.074Z,22.00
2018-08-22T03:50:14.382Z,22.00
2018-08-22T03:52:41.690Z,21.90
2018-08-22T03:55:09.007Z,21.90
2018-08-22T03:57:36.336Z,21.80
2018-08-22T04:00:03.934Z,21.70
2018-08-22T04:02:31.251Z,21.70
2018-08-22T04:04:58.561Z,21.80
2018-08-22T04:07:25.919Z,21.90
2018-08-22T04:09:53.219Z,21.80
2018-08-22T04:12:20.508Z,21.80
2018-08-22T04:14:47.819Z,21.70
2018-08-22T04:17:15.113Z,21.60
2018-08-22T04:19:42.450Z,21.60
2018-08-22T04:22:09.786Z,21.50
2018-08-22T04:24:37.114Z,21.50
2018-08-22T04:27:04.462Z,21.50
2018-08-22T04:29:31.764Z,21.60
2018-08-22T04:31:59.097Z,21.40
2018-08-22T04:34:26.422Z,21.20
2018-08-22T04:36:53.719Z,21.30
2018-08-22T04:39:21.034Z,21.40
2018-08-22T04:41:48.350Z,21.40
2018-08-22T04:44:15.699Z,21.50
2018-08-22T04:46:43.098Z,21.50
2018-08-22T04:49:10.395Z,21.30
2018-08-22T04:51:37.875Z,21.30
2018-08-22T04:54:05.240Z,21.30
2018-08-22T04:56:32.574Z,21.30
2018-08-22T04:58:59.876Z,21.30
2018-08-22T05:01:27.181Z,21.30
2018-08-22T05:03:54.480Z,21.30
2018-08-22T05:06:21.791Z,21.30
2018-08-22T05:08:49.097Z,21.30
2018-08-22T05:11:16.414Z,21.40
2018-08-22T05:13:43.744Z,21.50
2018-08-22T05:16:11.081Z,21.60
2018-08-22T05:18:38.449Z,21.80
2018-08-22T05:21:05.822Z,21.90
2018-08-22T05:23:33.168Z,22.00
2018-08-22T05:26:00.527Z,22.00
2018-08-22T05:28:27.874Z,21.90
2018-08-22T05:30:55.199Z,21.90
2018-08-22T05:33:22.518Z,22.00
2018-08-22T05:35:49.867Z,22.00
2018-08-22T05:38:17.546Z,22.00
2018-08-22T05:40:44.938Z,22.10
2018-08-22T05:43:12.245Z,22.20
2018-08-22T05:45:39.656Z,22.20
2018-08-22T05:48:07.038Z,22.40
2018-08-22T05:50:34.386Z,22.40
2018-08-22T05:53:01.703Z,22.40
2018-08-22T05:55:28.989Z,22.50
2018-08-22T05:57:56.397Z,22.50
2018-08-22T06:00:23.703Z,22.60
2018-08-22T06:02:51.046Z,22.70
2018-08-22T06:05:18.355Z,22.90
2018-08-22T06:07:45.662Z,22.90
2018-08-22T06:10:12.995Z,22.90
2018-08-22T06:12:40.302Z,23.00
2018-08-22T06:15:07.593Z,23.00
2018-08-22T06:17:34.923Z,23.10
2018-08-22T06:20:02.252Z,23.20
2018-08-22T06:22:29.599Z,23.20
2018-08-22T06:24:56.903Z,23.20
2018-08-22T06:27:24.217Z,23.30
2018-08-22T06:29:51.512Z,23.30
2018-08-22T06:32:18.843Z,23.40
2018-08-22T06:34:46.170Z,23.50
2018-08-22T06:37:13.486Z,23.60
2018-08-22T06:39:40.844Z,23.70
2018-08-22T06:42:08.163Z,23.70
2018-08-22T06:44:35.619Z,23.90
2018-08-22T06:47:02.913Z,24.00
2018-08-22T06:49:30.238Z,24.10
2018-08-22T06:51:57.590Z,24.20
2018-08-22T06:54:24.967Z,24.20
2018-08-22T06:56:52.245Z,24.30
2018-08-22T06:59:19.899Z,24.30
2018-08-22T07:01:47.221Z,24.40
2018-08-22T07:04:14.546Z,24.50
2018-08-22T07:06:42.082Z,24.50
2018-08-22T07:09:09.403Z,24.60
2018-08-22T07:11:36.789Z,24.60
2018-08-22T07:14:04.389Z,24.70
2018-08-22T07:16:31.694Z,24.70
2018-08-22T07:18:58.987Z,24.80
2018-08-22T07:21:26.298Z,24.80
2018-08-22T07:23:53.718Z,24.90
2018-08-22T07:26:21.031Z,24.90
2018-08-22T07:28:48.351Z,24.90
2018-08-22T07:31:15.798Z,25.00
2018-08-22T07:33:43.081Z,25.00
2018-08-22T07:36:10.400Z,25.10
2018-08-22T07:38:37.856Z,25.10
2018-08-22T07:41:05.183Z,25.20
2018-08-22T07:43:32.492Z,25.20
2018-08-22T07:45:59.801Z,25.30
2018-08-22T07:48:27.124Z,25.30
2018-08-22T07:50:54.529Z,25.40
2018-08-22T07:53:21.935Z,25.50
2018-08-22T07:55:49.226Z,25.60
2018-08-22T07:58:16.655Z,25.80
2018-08-22T08:00:44.005Z,26.00
2018-08-22T08:03:11.401Z,26.20
2018-08-22T08:05:38.758Z,26.30
2018-08-22T08:08:06.114Z,26.40
2018-08-22T08:10:33.497Z,26.30
2018-08-22T08:13:00.830Z,26.40
2018-08-22T08:15:28.134Z,26.50
2018-08-22T08:17:55.430Z,26.50
2018-08-22T08:20:22.753Z,26.50
2018-08-22T08:22:50.054Z,26.60
2018-08-22T08:25:17.402Z,26.60
2018-08-22T08:27:44.734Z,26.70
2018-08-22T08:30:12.038Z,26.80
2018-08-22T08:32:39.360Z,27.00
2018-08-22T08:35:06.675Z,27.00
2018-08-22T08:37:33.998Z,27.10
2018-08-22T08:40:01.289Z,27.20
2018-08-22T08:42:28.608Z,27.30
2018-08-22T08:44:55.946Z,27.30
2018-08-22T08:47:23.283Z,27.30
2018-08-22T08:49:50.587Z,27.50
2018-08-22T08:52:17.898Z,27.60
2018-08-22T08:54:45.231Z,27.70
2018-08-22T08:57:12.646Z,27.90
2018-08-22T08:59:39.830Z,27.90
2018-08-22T09:02:07.134Z,28.00
2018-08-22T09:04:34.459Z,28.10
2018-08-22T09:07:02.008Z,28.10
2018-08-22T09:09:29.332Z,28.20
2018-08-22T09:11:56.646Z,28.30
2018-08-22T09:14:23.961Z,28.30
2018-08-22T09:16:51.319Z,28.40
2018-08-22T09:19:18.730Z,28.50
2018-08-22T09:21:46.008Z,28.50
2018-08-22T09:24:13.353Z,28.50
2018-08-22T09:26:40.710Z,28.60
2018-08-22T09:29:08.016Z,28.60
2018-08-22T09:31:35.378Z,28.70
2018-08-22T09:34:02.677Z,28.80
2018-08-22T09:36:29.983Z,28.70
2018-08-22T09:38:57.319Z,28.80
2018-08-22T09:41:24.649Z,28.90
2018-08-22T09:43:51.937Z,28.80
2018-08-22T09:46:19.276Z,28.70
2018-08-22T09:48:46.569Z,28.70
2018-08-22T09:51:13.919Z,28.80
2018-08-22T09:53:41.215Z,28.90
2018-08-22T09:56:08.583Z,28.90
2018-08-22T09:58:35.921Z,28.90
2018-08-22T10:01:03.209Z,29.10
2018-08-22T10:03:40.582Z,29.20
2018-08-22T10:06:07.895Z,29.30
2018-08-22T10:08:35.294Z,29.30
2018-08-22T10:11:02.631Z,29.50
2018-08-22T10:13:29.937Z,29.60
2018-08-22T10:15:57.370Z,29.70
2018-08-22T10:18:31.491Z,29.80
2018-08-22T10:20:58.854Z,29.70
2018-08-22T10:23:26.243Z,29.80
2018-08-22T10:25:53.577Z,29.80
2018-08-22T10:28:20.890Z,29.70
2018-08-22T10:30:48.189Z,29.40
2018-08-22T10:33:15.494Z,29.40
2018-08-22T10:35:42.778Z,29.60
2018-08-22T10:38:10.102Z,29.70
2018-08-22T10:40:37.408Z,29.90
2018-08-22T10:43:04.866Z,29.90
2018-08-22T10:45:32.158Z,29.80
2018-08-22T10:47:59.547Z,30.00
2018-08-22T10:50:26.865Z,30.10
2018-08-22T10:52:54.328Z,30.20
2018-08-22T10:55:21.655Z,30.30
2018-08-22T10:57:49.139Z,30.30
2018-08-22T11:00:16.418Z,30.30
2018-08-22T11:02:43.742Z,30.30
2018-08-22T11:05:11.030Z,30.40
2018-08-22T11:07:38.555Z,30.60
2018-08-22T11:10:06.161Z,30.60
2018-08-22T11:12:33.399Z,30.70
2018-08-22T11:15:00.713Z,30.80
2018-08-22T11:17:28.041Z,30.80
2018-08-22T11:19:55.341Z,31.00
2018-08-22T11:22:34.290Z,30.90
2018-08-22T11:25:13.026Z,30.90
2018-08-22T11:27:51.845Z,31.10
2018-08-22T11:30:30.809Z,31.20
2018-08-22T11:33:09.767Z,30.80
2018-08-22T11:35:36.140Z,30.60
2018-08-22T11:38:03.614Z,30.70
2018-08-22T11:40:30.897Z,30.90
2018-08-22T11:42:58.220Z,30.90
2018-08-22T11:45:25.539Z,31.00
2018-08-22T11:47:52.866Z,31.20
2018-08-22T11:50:20.161Z,31.30
2018-08-22T11:52:47.603Z,31.40
2018-08-22T11:55:14.923Z,31.50
2018-08-22T11:57:42.228Z,31.60
2018-08-22T12:00:09.593Z,31.60
2018-08-22T12:02:36.931Z,31.60
2018-08-22T12:05:04.355Z,31.60
2018-08-22T12:07:31.670Z,31.60
2018-08-22T12:09:58.997Z,31.70
2018-08-22T12:12:26.300Z,31.70
2018-08-22T12:14:53.626Z,31.70
2018-08-22T12:17:20.941Z,31.70
2018-08-22T12:19:48.268Z,31.80
2018-08-22T12:22:15.585Z,31.80
2018-08-22T12:24:42.904Z,31.70
2018-08-22T12:27:10.273Z,31.80
2018-08-22T12:29:37.586Z,31.90
2018-08-22T12:32:04.937Z,31.90
2018-08-22T12:34:32.230Z,32.00
2018-08-22T12:36:59.559Z,32.00
2018-08-22T12:39:26.897Z,32.10
2018-08-22T12:41:54.178Z,32.20
2018-08-22T12:44:21.527Z,32.20
2018-08-22T12:46:48.806Z,32.30
2018-08-22T12:49:16.144Z,32.30
2018-08-22T12:51:43.466Z,32.10
2018-08-22T12:54:10.762Z,31.50
2018-08-22T12:56:38.086Z,31.40
2018-08-22T12:59:05.438Z,31.40
2018-08-22T13:01:32.746Z,31.50
2018-08-22T13:04:00.045Z,31.50
2018-08-22T13:06:27.359Z,31.60
2018-08-22T13:08:54.686Z,31.60
2018-08-22T13:11:22.026Z,31.60
2018-08-22T13:13:49.291Z,31.60
2018-08-22T13:16:17.126Z,31.70
2018-08-22T13:18:44.420Z,31.80
2018-08-22T13:21:11.744Z,32.00
2018-08-22T13:23:39.075Z,32.00
2018-08-22T13:26:06.479Z,32.00
2018-08-22T13:28:33.790Z,32.20
2018-08-22T13:31:01.096Z,32.40
2018-08-22T13:33:28.415Z,32.60
2018-08-22T13:35:55.716Z,32.70
2018-08-22T13:38:23.042Z,32.80
2018-08-22T13:40:50.328Z,32.70
2018-08-22T13:43:17.708Z,32.70
2018-08-22T13:45:45.005Z,32.60
2018-08-22T13:48:12.340Z,32.60
2018-08-22T13:50:39.699Z,32.40
2018-08-22T13:53:07.070Z,32.50
2018-08-22T13:55:34.350Z,32.70
2018-08-22T13:58:01.702Z,32.60
2018-08-22T14:00:29.011Z,32.30
2018-08-22T14:02:56.302Z,32.00
2018-08-22T14:05:23.649Z,32.00
2018-08-22T14:07:50.954Z,32.20
2018-08-22T14:10:18.330Z,32.40
2018-08-22T14:12:45.650Z,32.60
2018-08-22T14:15:13.015Z,33.00
2018-08-22T14:17:40.370Z,33.10
2018-08-22T14:20:07.726Z,33.30
2018-08-22T14:22:35.281Z,33.30
2018-08-22T14:25:02.718Z,33.30
2018-08-22T14:27:30.213Z,33.30
2018-08-22T14:29:57.536Z,33.40
2018-08-22T14:32:24.843Z,33.40
2018-08-22T14:34:52.170Z,33.50
2018-08-22T14:37:19.455Z,33.50
2018-08-22T14:39:47.073Z,33.50
2018-08-22T14:42:14.364Z,33.30
2018-08-22T14:44:41.683Z,33.30
2018-08-22T14:47:09.032Z,33.30
2018-08-22T14:49:36.332Z,33.30
2018-08-22T14:52:03.627Z,33.20
2018-08-22T14:54:30.925Z,33.30
2018-08-22T14:56:58.268Z,33.50
2018-08-22T14:59:25.600Z,33.50
2018-08-22T15:01:52.950Z,33.40
2018-08-22T15:04:20.301Z,33.30
2018-08-22T15:06:47.579Z,33.30
2018-08-22T15:09:14.938Z,33.50
2018-08-22T15:11:42.367Z,33.60
2018-08-22T15:14:09.704Z,33.80
2018-08-22T15:16:37.048Z,34.00
2018-08-22T15:19:04.687Z,34.10
2018-08-22T15:21:31.980Z,34.30
2018-08-22T15:23:59.277Z,34.40
2018-08-22T15:26:27.160Z,34.50
2018-08-22T15:28:54.497Z,34.50
2018-08-22T15:31:21.826Z,34.40
2018-08-22T15:33:49.146Z,34.20
2018-08-22T15:36:16.524Z,34.20
2018-08-22T15:38:43.837Z,34.30
2018-08-22T15:41:11.249Z,34.50
2018-08-22T15:43:38.566Z,34.70
2018-08-22T15:46:06.006Z,34.90
2018-08-22T15:48:33.329Z,35.10
2018-08-22T15:51:00.761Z,35.10
2018-08-22T15:53:28.161Z,34.90
2018-08-22T15:55:55.460Z,34.70
2018-08-22T15:58:22.773Z,34.60
2018-08-22T16:00:50.253Z,34.40
2018-08-22T16:03:17.561Z,34.40
2018-08-22T16:05:44.887Z,34.60
2018-08-22T16:08:12.437Z,34.90
2018-08-22T16:10:39.726Z,34.70
2018-08-22T16:13:09.890Z,34.60
2018-08-22T16:15:37.247Z,34.60
2018-08-22T16:18:06.622Z,34.40
2018-08-22T16:20:40.009Z,34.70
2018-08-22T16:23:07.358Z,34.90
2018-08-22T16:25:34.681Z,35.30
2018-08-22T16:28:02.042Z,35.80
2018-08-22T16:30:29.631Z,36.40
2018-08-22T16:35:30.786Z,37.40
2018-08-22T16:38:03.221Z,36.90
2018-08-22T16:40:30.490Z,36.70
2018-08-22T16:42:57.802Z,36.80
2018-08-22T16:45:25.106Z,37.30
2018-08-22T16:47:52.435Z,37.70
2018-08-22T16:50:20.226Z,38.00
2018-08-22T16:52:47.561Z,37.80
2018-08-22T16:55:18.497Z,37.60
2018-08-22T16:57:45.801Z,37.30
2018-08-22T17:00:13.103Z,36.90
2018-08-22T17:02:40.410Z,36.70
2018-08-22T17:05:07.736Z,36.70
2018-08-22T17:07:35.153Z,36.50
2018-08-22T17:10:03.067Z,36.00
2018-08-22T17:12:39.015Z,35.40
2018-08-22T17:15:06.654Z,35.10
2018-08-22T17:17:33.954Z,35.00
2018-08-22T17:20:01.264Z,34.80
2018-08-22T17:22:28.574Z,34.70
2018-08-22T17:24:55.935Z,34.90
2018-08-22T17:27:23.280Z,34.80
2018-08-22T17:29:50.607Z,34.60
2018-08-22T17:32:17.916Z,34.40
2018-08-22T17:34:45.232Z,34.40
2018-08-22T17:37:12.583Z,34.40
2018-08-22T17:39:40.038Z,34.40
2018-08-22T17:42:07.406Z,34.60
2018-08-22T17:44:34.716Z,34.90
2018-08-22T17:47:02.002Z,35.00
2018-08-22T17:49:29.322Z,35.00
2018-08-22T17:51:57.316Z,35.00
2018-08-22T17:54:24.644Z,35.10
2018-08-22T17:57:03.298Z,35.10
2018-08-22T17:59:30.616Z,35.00
2018-08-22T18:01:58.701Z,34.80
2018-08-22T18:04:26.170Z,34.70
2018-08-22T18:06:53.488Z,34.60
2018-08-22T18:09:20.793Z,34.40
2018-08-22T18:11:48.124Z,34.30
2018-08-22T18:14:15.449Z,34.10
2018-08-22T18:16:43.022Z,33.90
2018-08-22T18:19:19.147Z,33.60
2018-08-22T18:21:46.418Z,33.30
2018-08-22T18:24:13.783Z,33.10
2018-08-22T18:26:41.082Z,32.80
2018-08-22T18:29:08.414Z,32.60
2018-08-22T18:31:35.760Z,32.40
2018-08-22T18:34:03.271Z,32.20
2018-08-22T18:36:30.606Z,32.00
2018-08-22T18:39:01.851Z,31.90
2018-08-22T18:41:29.158Z,31.70
2018-08-22T18:43:56.514Z,31.60
2018-08-22T18:46:24.986Z,31.50
2018-08-22T18:48:52.579Z,31.40
2018-08-22T18:51:19.945Z,31.50
2018-08-22T18:53:47.288Z,31.40
2018-08-22T18:56:15.176Z,31.40
2018-08-22T18:58:42.480Z,31.20
2018-08-22T19:01:09.826Z,31.10
2018-08-22T19:03:37.188Z,31.00
2018-08-22T19:06:04.678Z,30.80
2018-08-22T19:08:35.375Z,30.60
2018-08-22T19:11:02.785Z,30.50
2018-08-22T19:13:30.032Z,30.40
2018-08-22T19:15:57.349Z,30.30
2018-08-22T19:18:24.658Z,30.20
2018-08-22T19:20:53.724Z,30.20
2018-08-22T19:23:21.159Z,30.10
2018-08-22T19:25:48.528Z,30.00
2018-08-22T19:28:15.850Z,29.90
2018-08-22T19:30:43.151Z,29.90
2018-08-22T19:33:11.485Z,29.90
2018-08-22T19:35:38.796Z,29.80
2018-08-22T19:38:06.151Z,29.80
2018-08-22T19:40:33.589Z,29.70
2018-08-22T19:43:00.887Z,29.70
2018-08-22T19:45:28.196Z,29.60
2018-08-22T19:47:55.499Z,29.50
2018-08-22T19:50:22.819Z,29.50
2018-08-22T19:52:50.169Z,29.50
2018-08-22T19:55:17.487Z,29.40
2018-08-22T19:57:44.861Z,29.40
2018-08-22T20:00:12.248Z,29.30
2018-08-22T20:02:39.569Z,29.20
2018-08-22T20:05:07.849Z,29.10
2018-08-22T20:07:35.264Z,29.00
2018-08-22T20:10:03.050Z,28.90
2018-08-22T20:12:42.844Z,28.80
2018-08-22T20:15:10.165Z,28.70
2018-08-22T20:17:37.517Z,28.60
2018-08-22T20:20:05.845Z,28.50
2018-08-22T20:22:33.186Z,28.40
2018-08-22T20:25:00.519Z,28.40
2018-08-22T20:27:27.859Z,28.50
2018-08-22T20:29:55.229Z,28.50
2018-08-22T20:32:22.534Z,28.40
2018-08-22T20:34:49.838Z,28.40
2018-08-22T20:37:17.508Z,28.40
2018-08-22T20:39:45.114Z,28.30
2018-08-22T20:42:12.553Z,28.30
2018-08-22T20:44:40.100Z,28.30
2018-08-22T20:47:07.516Z,28.20
2018-08-22T20:49:34.825Z,28.20
2018-08-22T20:52:02.199Z,28.20
2018-08-22T20:54:29.532Z,28.10
2018-08-22T20:56:56.894Z,28.10
2018-08-22T20:59:24.241Z,28.10
2018-08-22T21:01:51.620Z,28.10
2018-08-22T21:04:18.966Z,28.10
2018-08-22T21:06:46.453Z,28.10
2018-08-22T21:09:13.864Z,28.00
2018-08-22T21:11:41.904Z,27.90
2018-08-22T21:14:09.271Z,27.90
2018-08-22T21:16:36.640Z,27.90
2018-08-22T21:19:04.216Z,28.00
2018-08-22T21:21:31.561Z,28.00
2018-08-22T21:23:58.951Z,27.90
2018-08-22T21:26:34.252Z,27.90
2018-08-22T21:29:01.677Z,27.90
2018-08-22T21:31:29.010Z,27.90
2018-08-22T21:33:56.382Z,27.90
2018-08-22T21:36:23.748Z,27.80
2018-08-22T21:38:51.088Z,27.70
2018-08-22T21:41:18.413Z,27.80
2018-08-22T21:43:45.764Z,27.70
2018-08-22T21:46:13.088Z,27.60
2018-08-22T21:48:41.395Z,27.60
2018-08-22T21:51:09.140Z,27.60
2018-08-22T21:53:36.894Z,27.60
2018-08-22T21:56:04.244Z,27.50
2018-08-22T21:58:31.585Z,27.50
2018-08-22T22:00:58.952Z,27.50
2018-08-22T22:03:26.255Z,27.50
2018-08-22T22:05:53.579Z,27.50
2018-08-22T22:08:21.036Z,27.40
2018-08-22T22:13:32.891Z,27.20
2018-08-22T22:16:01.257Z,27.20
2018-08-22T22:18:28.574Z,27.20
2018-08-22T22:21:06.788Z,27.10
2018-08-22T22:23:35.482Z,26.90
2018-08-22T22:26:02.823Z,26.80
2018-08-22T22:28:30.155Z,26.70
2018-08-22T22:30:57.473Z,26.70
2018-08-22T22:33:24.808Z,26.60
2018-08-22T22:35:52.540Z,26.50
2018-08-22T22:38:19.856Z,26.50
2018-08-22T22:40:47.212Z,26.50
2018-08-22T22:43:14.511Z,26.50
2018-08-22T22:45:41.832Z,26.50
2018-08-22T22:48:09.148Z,26.50
2018-08-22T22:50:36.477Z,26.50
2018-08-22T22:53:03.806Z,26.40
2018-08-22T22:55:31.273Z,26.40
2018-08-22T22:57:58.576Z,26.40
2018-08-22T23:00:28.215Z,26.30
2018-08-22T23:02:55.559Z,26.30
2018-08-22T23:05:22.878Z,26.30
2018-08-22T23:07:50.182Z,26.30
2018-08-22T23:10:17.510Z,26.20
2018-08-22T23:12:44.857Z,26.20
2018-08-22T23:15:13.301Z,26.10
2018-08-22T23:17:40.598Z,26.00
2018-08-22T23:20:14.282Z,26.00
2018-08-22T23:22:41.596Z,26.10
2018-08-22T23:25:08.920Z,26.20
2018-08-22T23:27:36.264Z,26.10
2018-08-22T23:30:03.723Z,26.20
2018-08-22T23:32:31.028Z,26.10
2018-08-22T23:35:08.560Z,26.10
2018-08-22T23:37:35.891Z,26.00
2018-08-22T23:40:03.199Z,26.00
2018-08-22T23:42:30.508Z,25.90
2018-08-22T23:44:57.844Z,25.90
2018-08-22T23:47:25.180Z,25.90
2018-08-22T23:49:52.530Z,25.90
2018-08-22T23:52:19.819Z,25.90
2018-08-22T23:54:47.195Z,25.90
2018-08-22T23:57:18.906Z,25.90
2018-08-22T23:59:46.216Z,25.70
